»·PEaware :: N364CM KAJO-KVCV

N364CM :: KAJO-KVCV

FLIGHT INFORMATION

Flight Status: Arrived
Operator: Privately registered:
United States
More flights under this callsign
Pilot: Brian S. (32023)
Aircraft: BEECH AIRCRAFT SUPER KING AIR 350
(B350)
More flights by this aircraft type
Origin: KAJO Corona Mun
United States
Destination: KVCV Socal Logistics
United States
More flights between these airports :: More routes between these airports
Route: PDZ V442 APLES
File this flight plan on PilotEdge
Remarks:
Altitude:
(Current/Filed)
9,000ft
Speed:
(Current/Filed)
260kts
Departed: 22-Jan-21 05:24 PM
Arrived: 22-Jan-21 06:25 PM
Distance/Time
Traveled:
43nm/1:01
Distance/Time
To Go:
Arrived

Flight Plot

Page will automatically refresh every two minutes.


Map Options




Map Legend


Flown Route
Filed Route
Departure Airport
Arrival Airport
Navaid (VOR, NDB)
Fix

Horizontal Profiles

Position Reports

Time Latitude Longitude Heading Altitude Ground
Speed
22-Jan-21 17:07 33.896559 -117.602108 92 538ft 0kts
22-Jan-21 17:08 33.896559 -117.602108 92 538ft 0kts
22-Jan-21 17:09 33.896559 -117.602108 92 538ft 0kts
22-Jan-21 17:10 33.896559 -117.602108 92 538ft 0kts
22-Jan-21 17:11 33.896559 -117.602108 92 538ft 0kts
22-Jan-21 17:12 33.896559 -117.602108 92 538ft 0kts
22-Jan-21 17:13 33.896559 -117.602108 92 538ft 0kts
22-Jan-21 17:14 33.896559 -117.602108 92 538ft 0kts
22-Jan-21 17:15 33.896559 -117.602108 92 538ft 0kts
22-Jan-21 17:16 33.896559 -117.602108 92 538ft 0kts
22-Jan-21 17:17 33.896559 -117.602108 92 538ft 0kts
22-Jan-21 17:18 33.896559 -117.602108 92 538ft 0kts
22-Jan-21 17:19 33.897288 -117.600053 87 538ft 2kts
22-Jan-21 17:20 33.897305 -117.597871 85 538ft 0kts
22-Jan-21 17:21 33.897305 -117.597871 85 538ft 0kts
22-Jan-21 17:22 33.897748 -117.597594 270 538ft 0kts
22-Jan-21 17:23 33.896889 -117.629283 277 1364ft 130kts
22-Jan-21 17:24 33.922579 -117.651105 27 3086ft 135kts
22-Jan-21 17:25 33.925765 -117.604934 97 4050ft 181kts
22-Jan-21 17:26 33.921581 -117.549423 91 4895ft 149kts
22-Jan-21 17:27 33.933005 -117.507651 40 5454ft 153kts
22-Jan-21 17:28 33.950235 -117.465469 113 5932ft 160kts
22-Jan-21 17:29 33.914508 -117.474317 261 5982ft 177kts
22-Jan-21 17:30 33.911417 -117.528479 271 6893ft 145kts
22-Jan-21 17:31 33.942166 -117.531733 38 7391ft 141kts
22-Jan-21 17:32 33.966978 -117.493336 94 7807ft 164kts
22-Jan-21 17:33 33.932837 -117.486774 253 8517ft 182kts
22-Jan-21 17:34 33.921589 -117.541060 289 9013ft 160kts
22-Jan-21 17:35 33.958910 -117.534880 41 9005ft 177kts
22-Jan-21 17:36 33.964329 -117.488583 160 9016ft 181kts
22-Jan-21 17:37 33.925722 -117.520803 220 9010ft 181kts
22-Jan-21 17:38 33.920039 -117.567437 341 9015ft 181kts
22-Jan-21 17:39 33.961789 -117.538723 40 8998ft 181kts
22-Jan-21 17:40 33.962516 -117.493467 170 9015ft 181kts
22-Jan-21 17:41 33.921749 -117.525926 221 8998ft 181kts
22-Jan-21 17:42 33.926979 -117.569004 1 9015ft 181kts
22-Jan-21 17:43 33.967280 -117.534194 40 8997ft 180kts
22-Jan-21 17:44 33.960883 -117.491769 184 9015ft 181kts
22-Jan-21 17:45 33.919838 -117.525747 218 9005ft 180kts
22-Jan-21 17:46 33.925841 -117.568057 3 9015ft 181kts
22-Jan-21 17:47 33.955399 -117.522447 62 8998ft 181kts
22-Jan-21 17:48 33.993471 -117.485658 28 8999ft 180kts
22-Jan-21 17:49 34.041572 -117.455305 25 9013ft 214kts
22-Jan-21 17:50 34.097826 -117.422041 26 9004ft 233kts
22-Jan-21 17:51 34.157008 -117.386436 26 9001ft 241kts
22-Jan-21 17:52 34.216951 -117.350284 26 8997ft 239kts
22-Jan-21 17:53 34.276178 -117.314561 26 8998ft 237kts
22-Jan-21 17:54 34.333067 -117.280182 26 8987ft 215kts
22-Jan-21 17:55 34.383833 -117.249468 26 9016ft 194kts
22-Jan-21 17:56 34.429854 -117.221586 26 9088ft 180kts
22-Jan-21 17:57 34.475236 -117.194034 26 9095ft 186kts
22-Jan-21 17:58 34.522131 -117.165511 26 9094ft 191kts
22-Jan-21 17:59 34.573130 -117.144468 6 8574ft 204kts
22-Jan-21 18:00 34.627010 -117.146272 350 7178ft 187kts
22-Jan-21 18:01 34.674281 -117.162968 336 6530ft 188kts
22-Jan-21 18:02 34.716362 -117.192579 323 6689ft 170kts
22-Jan-21 18:03 34.750829 -117.232542 309 6696ft 175kts
22-Jan-21 18:04 34.777409 -117.283012 295 6693ft 179kts
22-Jan-21 18:05 34.793656 -117.342431 281 5453ft 187kts
22-Jan-21 18:06 34.776893 -117.379628 162 4947ft 159kts
22-Jan-21 18:07 34.733240 -117.378038 183 4382ft 144kts
22-Jan-21 18:08 34.693586 -117.381345 185 4394ft 143kts
22-Jan-21 18:09 34.654688 -117.384753 184 3260ft 126kts
22-Jan-21 18:10 34.618618 -117.387019 181 3301ft 138kts
22-Jan-21 18:11 34.573261 -117.387987 181 3634ft 196kts
22-Jan-21 18:13 34.546969 -117.423651 309 5365ft 183kts
22-Jan-21 18:14 34.582518 -117.471681 312 6085ft 199kts
22-Jan-21 18:15 34.614879 -117.522278 273 6076ft 185kts
22-Jan-21 18:16 34.630581 -117.578848 291 6060ft 179kts
22-Jan-21 18:17 34.649807 -117.635389 293 5602ft 199kts
22-Jan-21 18:18 34.686870 -117.649244 66 5590ft 175kts
22-Jan-21 18:19 34.670276 -117.597604 113 5591ft 167kts
22-Jan-21 18:20 34.651801 -117.545851 113 5361ft 176kts
22-Jan-21 18:21 34.631734 -117.487767 101 4013ft 184kts
22-Jan-21 18:22 34.630102 -117.438679 54 3904ft 143kts
22-Jan-21 18:23 34.652797 -117.403173 103 3743ft 125kts
22-Jan-21 18:24 34.625285 -117.386847 179 2893ft 107kts
22-Jan-21 18:25 34.610731 -117.386357 126 2833ft 14kts
22-Jan-21 18:26 34.609859 -117.384178 177 2835ft 16kts
22-Jan-21 18:27 34.605039 -117.384138 179 2843ft 24kts
22-Jan-21 18:28 34.597625 -117.384069 179 2856ft 27kts
22-Jan-21 18:28 34.593337 -117.382139 134 2865ft 20kts
22-Jan-21 18:30 34.588763 -117.376698 112 2874ft 16kts
22-Jan-21 18:31 34.588338 -117.376614 313 2875ft 0kts
22-Jan-21 18:31 34.588338 -117.376614 313 2875ft 0kts
22-Jan-21 18:32 34.588338 -117.376614 313 2875ft 0kts
22-Jan-21 18:33 34.588338 -117.376614 313 2875ft 0kts

Navigation Log

Ident Type
Flight plan parsing failed, navigation log unavailable